Time;durP1;ratioP1;P1;durP2;ratioP2;P2;SDS_P1;SDS_P2;PMS_P1;PMS_P2;Temp;Humidity;BMP_temperature;BMP_pressure;BME280_temperature;BME280_humidity;BME280_pressure;Samples;Min_cycle;Max_cycle;Signal;HPM_P1;HPM_P2
2023/07/12 00:01:09;;;;;;;2.07;1.77;;;;;;;;;;5071786;28;20185;-60
2023/07/12 00:03:35;;;;;;;1.80;1.70;;;;;;;;;;5069826;28;20201;-60
2023/07/12 00:06:01;;;;;;;2.20;2.00;;;;;;;;;;5071256;28;20230;-60
2023/07/12 00:08:28;;;;;;;3.07;2.07;;;;;;;;;;5071487;28;20172;-60
2023/07/12 00:10:55;;;;;;;3.43;1.90;;;;;;;;;;5071331;28;20167;-59
2023/07/12 00:13:23;;;;;;;2.30;2.17;;;;;;;;;;5071131;28;20200;-60
2023/07/12 00:15:49;;;;;;;2.20;2.00;;;;;;;;;;5071503;28;20160;-59
2023/07/12 00:18:17;;;;;;;2.43;2.00;;;;;;;;;;5069817;28;20640;-60
2023/07/12 00:20:43;;;;;;;2.40;2.20;;;;;;;;;;5070903;28;20237;-60
2023/07/12 00:23:17;;;;;;;2.43;1.90;;;;;;;;;;5070849;28;20177;-60
2023/07/12 00:25:44;;;;;;;2.40;2.20;;;;;;;;;;5071283;28;20569;-60
2023/07/12 00:28:26;;;;;;;2.67;2.03;;;;;;;;;;5071117;28;20645;-59
2023/07/12 00:30:53;;;;;;;2.80;2.20;;;;;;;;;;5071192;28;20173;-59
2023/07/12 00:33:19;;;;;;;3.13;2.40;;;;;;;;;;5069252;28;20180;-59
2023/07/12 00:35:45;;;;;;;2.00;1.90;;;;;;;;;;5071064;28;20528;-59
2023/07/12 00:38:18;;;;;;;2.08;1.90;;;;;;;;;;5070881;28;20651;-59
2023/07/12 00:40:56;;;;;;;2.17;1.95;;;;;;;;;;5071008;28;20180;-59
2023/07/12 00:43:22;;;;;;;2.08;1.98;;;;;;;;;;5052409;28;20279;-59
2023/07/12 00:45:50;;;;;;;2.08;1.98;;;;;;;;;;5070951;28;20342;-59
2023/07/12 00:48:16;;;;;;;2.10;2.00;;;;;;;;;;5069252;28;20203;-59
2023/07/12 00:50:42;;;;;;;2.60;2.05;;;;;;;;;;5070863;28;20161;-58
2023/07/12 00:53:15;;;;;;;1.88;1.77;;;;;;;;;;5070568;28;20179;-59
2023/07/12 00:55:55;;;;;;;2.25;2.05;;;;;;;;;;5070964;28;20172;-59
2023/07/12 00:58:22;;;;;;;4.05;1.98;;;;;;;;;;5070253;28;20175;-59
2023/07/12 01:00:48;;;;;;;2.58;2.20;;;;;;;;;;5070876;28;20554;-59
2023/07/12 01:03:15;;;;;;;3.33;1.92;;;;;;;;;;5069040;28;20216;-59
2023/07/12 01:05:44;;;;;;;2.92;2.42;;;;;;;;;;5070228;28;20201;-59
2023/07/12 01:08:11;;;;;;;2.17;1.98;;;;;;;;;;5069628;28;20407;-59
2023/07/12 01:10:37;;;;;;;2.40;2.20;;;;;;;;;;5070757;28;20209;-59
2023/07/12 01:13:03;;;;;;;1.95;1.85;;;;;;;;;;5070603;28;20608;-59
2023/07/12 01:15:31;;;;;;;2.95;2.08;;;;;;;;;;5070562;28;20212;-60
2023/07/12 01:17:57;;;;;;;1.98;1.88;;;;;;;;;;5069303;28;20153;-59
2023/07/12 01:20:24;;;;;;;2.65;2.45;;;;;;;;;;5069854;28;20262;-59
2023/07/12 01:22:53;;;;;;;2.30;2.10;;;;;;;;;;5069855;28;20514;-59
2023/07/12 01:25:29;;;;;;;2.20;2.10;;;;;;;;;;5070001;28;20291;-59
2023/07/12 01:27:55;;;;;;;2.10;2.00;;;;;;;;;;5070158;28;20281;-59
2023/07/12 01:30:21;;;;;;;2.77;2.57;;;;;;;;;;5069827;28;20258;-59
2023/07/12 01:32:48;;;;;;;2.60;2.40;;;;;;;;;;5069289;28;20674;-60
2023/07/12 01:35:14;;;;;;;2.67;2.47;;;;;;;;;;5069859;28;20169;-60
2023/07/12 01:37:40;;;;;;;3.03;2.50;;;;;;;;;;5070303;28;20637;-60
2023/07/12 01:40:08;;;;;;;4.40;3.10;;;;;;;;;;5070083;28;20177;-59
2023/07/12 01:42:34;;;;;;;4.27;2.90;;;;;;;;;;5070123;28;20176;-59
2023/07/12 01:45:00;;;;;;;4.10;3.20;;;;;;;;;;5070103;28;20211;-59
2023/07/12 01:47:26;;;;;;;4.40;3.20;;;;;;;;;;5069287;28;20164;-60
2023/07/12 01:49:52;;;;;;;2.87;2.37;;;;;;;;;;5069481;28;20619;-59
2023/07/12 01:52:18;;;;;;;3.60;2.90;;;;;;;;;;5069466;28;20198;-59
2023/07/12 01:54:44;;;;;;;3.53;2.83;;;;;;;;;;5070252;28;20160;-59
2023/07/12 01:57:10;;;;;;;5.03;3.10;;;;;;;;;;5069645;28;20602;-59
2023/07/12 01:59:36;;;;;;;3.70;3.07;;;;;;;;;;5069752;28;20170;-60
2023/07/12 02:02:02;;;;;;;5.03;2.87;;;;;;;;;;5069125;28;20233;-59
2023/07/12 02:04:28;;;;;;;3.90;2.73;;;;;;;;;;5069189;28;20241;-59
2023/07/12 02:06:54;;;;;;;4.53;2.47;;;;;;;;;;5069664;28;20637;-59
2023/07/12 02:09:20;;;;;;;3.07;2.37;;;;;;;;;;5069502;28;20173;-59
2023/07/12 02:11:46;;;;;;;3.23;2.87;;;;;;;;;;5070059;28;20164;-60
2023/07/12 02:14:12;;;;;;;2.90;2.60;;;;;;;;;;5069785;28;20503;-59
2023/07/12 02:16:38;;;;;;;3.27;2.50;;;;;;;;;;5069608;28;20639;-59
2023/07/12 02:19:05;;;;;;;2.77;2.57;;;;;;;;;;5068658;28;20182;-60
2023/07/12 02:21:31;;;;;;;3.10;2.30;;;;;;;;;;5069398;28;20673;-60
2023/07/12 02:23:57;;;;;;;3.27;2.40;;;;;;;;;;5051513;28;20207;-59
2023/07/12 02:26:23;;;;;;;4.23;2.50;;;;;;;;;;5069422;28;20200;-59
2023/07/12 02:28:49;;;;;;;2.57;2.37;;;;;;;;;;5069421;28;20237;-59
2023/07/12 02:31:23;;;;;;;3.23;2.70;;;;;;;;;;5069473;28;20173;-59
2023/07/12 02:33:49;;;;;;;2.73;2.53;;;;;;;;;;5069741;28;20170;-58
2023/07/12 02:36:16;;;;;;;3.80;2.70;;;;;;;;;;5073301;28;20162;-58
2023/07/12 02:38:42;;;;;;;3.27;2.50;;;;;;;;;;5072897;28;20164;-58
2023/07/12 02:41:08;;;;;;;3.50;2.93;;;;;;;;;;5073293;28;20163;-58
2023/07/12 02:43:34;;;;;;;3.07;2.30;;;;;;;;;;5072621;28;20205;-57
2023/07/12 02:46:01;;;;;;;4.13;2.97;;;;;;;;;;5073134;28;20623;-57
2023/07/12 02:48:27;;;;;;;2.87;2.30;;;;;;;;;;5071801;28;20159;-57
2023/07/12 02:50:53;;;;;;;3.37;2.57;;;;;;;;;;5073187;28;20525;-56
2023/07/12 02:53:20;;;;;;;4.27;2.90;;;;;;;;;;5072526;28;20210;-56
2023/07/12 02:55:49;;;;;;;2.83;2.30;;;;;;;;;;5072959;28;20214;-56
2023/07/12 02:58:15;;;;;;;3.10;2.60;;;;;;;;;;5072798;28;20582;-56
2023/07/12 03:00:41;;;;;;;2.57;2.23;;;;;;;;;;5072740;28;20600;-57
2023/07/12 03:03:09;;;;;;;3.63;3.37;;;;;;;;;;5071311;28;20172;-56
2023/07/12 03:05:35;;;;;;;4.40;2.47;;;;;;;;;;5072376;28;20561;-57
2023/07/12 03:08:01;;;;;;;3.60;2.87;;;;;;;;;;5072583;28;20694;-57
2023/07/12 03:10:27;;;;;;;2.50;2.30;;;;;;;;;;5072513;28;20233;-58
2023/07/12 03:12:54;;;;;;;2.50;2.30;;;;;;;;;;5072732;28;20181;-56
2023/07/12 03:15:20;;;;;;;4.20;2.60;;;;;;;;;;5072094;28;20179;-58
2023/07/12 03:17:46;;;;;;;3.80;2.30;;;;;;;;;;5071748;28;20670;-57
2023/07/12 03:20:12;;;;;;;4.57;4.17;;;;;;;;;;5072002;28;20566;-57
2023/07/12 03:22:38;;;;;;;3.10;2.47;;;;;;;;;;5072310;28;20181;-57
2023/07/12 03:25:05;;;;;;;3.37;2.90;;;;;;;;;;5071988;28;20201;-56
2023/07/12 03:27:31;;;;;;;2.73;2.40;;;;;;;;;;5072285;28;20506;-57
2023/07/12 03:29:57;;;;;;;3.50;2.63;;;;;;;;;;5071924;28;20161;-57
2023/07/12 03:32:24;;;;;;;3.60;2.80;;;;;;;;;;5071039;28;20194;-57
2023/07/12 03:34:50;;;;;;;3.97;3.07;;;;;;;;;;5071532;28;20169;-58
2023/07/12 03:37:16;;;;;;;2.60;2.40;;;;;;;;;;5071862;28;20177;-57
2023/07/12 03:39:43;;;;;;;2.30;2.10;;;;;;;;;;5071656;28;20278;-56
2023/07/12 03:42:09;;;;;;;2.60;2.30;;;;;;;;;;5071766;28;20157;-57
2023/07/12 03:44:35;;;;;;;3.77;3.00;;;;;;;;;;5070870;28;20232;-56
2023/07/12 03:47:02;;;;;;;3.50;2.60;;;;;;;;;;5070520;28;20649;-56
2023/07/12 03:49:28;;;;;;;2.53;2.23;;;;;;;;;;5071455;28;20241;-57
2023/07/12 03:51:54;;;;;;;3.20;2.60;;;;;;;;;;5071526;28;20156;-57
2023/07/12 03:54:21;;;;;;;4.30;2.77;;;;;;;;;;5071528;28;20277;-57
2023/07/12 03:56:47;;;;;;;4.73;2.43;;;;;;;;;;5053315;28;20226;-56
2023/07/12 03:59:13;;;;;;;2.60;2.40;;;;;;;;;;5070504;28;20175;-56
2023/07/12 04:01:39;;;;;;;3.50;2.77;;;;;;;;;;5070042;28;20209;-56
2023/07/12 04:04:06;;;;;;;3.00;2.70;;;;;;;;;;5069194;28;20300;-56
2023/07/12 04:06:32;;;;;;;3.07;2.77;;;;;;;;;;5069974;28;20606;-56
2023/07/12 04:08:59;;;;;;;3.90;2.90;;;;;;;;;;5070469;28;20164;-56
2023/07/12 04:11:37;;;;;;;3.07;2.30;;;;;;;;;;5071460;28;20171;-56
2023/07/12 04:14:03;;;;;;;3.20;2.30;;;;;;;;;;5071108;28;20175;-56
2023/07/12 04:16:30;;;;;;;2.87;2.40;;;;;;;;;;5070844;28;20209;-56
2023/07/12 04:18:56;;;;;;;2.80;2.30;;;;;;;;;;5070525;28;20171;-56
2023/07/12 04:21:25;;;;;;;3.80;3.50;;;;;;;;;;5071301;28;20562;-57
2023/07/12 04:23:51;;;;;;;2.40;2.20;;;;;;;;;;5070978;28;20213;-57
2023/07/12 04:26:18;;;;;;;2.67;2.47;;;;;;;;;;5071234;28;20629;-57
2023/07/12 04:28:48;;;;;;;4.47;2.50;;;;;;;;;;5071223;28;20555;-56
2023/07/12 04:31:15;;;;;;;3.03;2.40;;;;;;;;;;5070997;28;20156;-56
2023/07/12 04:33:42;;;;;;;4.30;2.07;;;;;;;;;;5070357;28;20561;-57
2023/07/12 04:36:09;;;;;;;2.90;2.60;;;;;;;;;;5071361;28;20689;-57
2023/07/12 04:38:35;;;;;;;2.80;2.10;;;;;;;;;;5070664;28;20157;-57
2023/07/12 04:41:01;;;;;;;2.50;2.13;;;;;;;;;;5070671;28;20164;-56
2023/07/12 04:43:29;;;;;;;2.63;2.40;;;;;;;;;;5070800;28;20535;-56
2023/07/12 04:45:56;;;;;;;3.50;2.27;;;;;;;;;;5070135;28;20176;-56
2023/07/12 04:48:22;;;;;;;3.23;2.20;;;;;;;;;;5069260;28;20634;-56
2023/07/12 04:50:53;;;;;;;2.37;2.17;;;;;;;;;;5052619;28;20184;-57
2023/07/12 04:53:20;;;;;;;2.87;2.47;;;;;;;;;;5070471;28;20253;-57
2023/07/12 04:55:46;;;;;;;3.17;2.73;;;;;;;;;;5070863;28;20166;-57
2023/07/12 04:58:12;;;;;;;2.20;2.00;;;;;;;;;;5069321;28;20221;-57
2023/07/12 05:00:38;;;;;;;2.30;2.10;;;;;;;;;;5070544;28;20505;-56
2023/07/12 05:03:05;;;;;;;5.40;2.53;;;;;;;;;;5069508;28;20263;-57
2023/07/12 05:05:34;;;;;;;2.63;2.30;;;;;;;;;;5070123;28;20296;-57
2023/07/12 05:08:04;;;;;;;2.20;2.00;;;;;;;;;;5070410;28;20168;-57
2023/07/12 05:10:30;;;;;;;6.93;2.30;;;;;;;;;;5070177;28;20203;-57
2023/07/12 05:12:57;;;;;;;2.60;2.40;;;;;;;;;;5070398;28;20524;-57
2023/07/12 05:15:23;;;;;;;4.17;2.30;;;;;;;;;;5070275;28;20244;-56
2023/07/12 05:17:49;;;;;;;3.27;2.20;;;;;;;;;;5069613;28;20183;-56
2023/07/12 05:20:16;;;;;;;2.27;2.10;;;;;;;;;;5069705;28;20214;-57
2023/07/12 05:22:43;;;;;;;2.20;2.00;;;;;;;;;;5070588;28;20180;-56
2023/07/12 05:25:09;;;;;;;1.97;1.83;;;;;;;;;;5070036;28;20218;-57
2023/07/12 05:27:35;;;;;;;2.60;2.13;;;;;;;;;;5070203;28;20541;-56
2023/07/12 05:30:02;;;;;;;2.30;2.10;;;;;;;;;;5070352;28;20604;-56
2023/07/12 05:32:28;;;;;;;3.33;2.03;;;;;;;;;;5069667;28;20612;-57
2023/07/12 05:34:54;;;;;;;3.00;2.17;;;;;;;;;;5069941;28;20617;-56
2023/07/12 05:37:20;;;;;;;2.40;2.10;;;;;;;;;;5070039;28;20195;-56
2023/07/12 05:39:47;;;;;;;1.97;1.80;;;;;;;;;;5070294;28;20172;-56
2023/07/12 05:42:13;;;;;;;2.13;1.93;;;;;;;;;;5052248;28;20177;-55
2023/07/12 05:44:39;;;;;;;2.33;2.00;;;;;;;;;;5070392;28;20284;-57
2023/07/12 05:47:05;;;;;;;2.67;2.43;;;;;;;;;;5069222;28;20222;-56
2023/07/12 05:49:31;;;;;;;2.33;1.97;;;;;;;;;;5069973;28;20594;-57
2023/07/12 05:51:59;;;;;;;2.10;1.93;;;;;;;;;;5051947;28;20655;-57
2023/07/12 05:54:25;;;;;;;2.30;2.10;;;;;;;;;;5052125;28;20278;-56
2023/07/12 05:56:51;;;;;;;2.07;1.97;;;;;;;;;;5069663;28;20234;-55
2023/07/12 05:59:19;;;;;;;2.53;2.33;;;;;;;;;;5070256;28;20175;-55
2023/07/12 06:01:45;;;;;;;2.80;2.20;;;;;;;;;;5069993;28;20215;-56
2023/07/12 06:04:11;;;;;;;2.83;2.30;;;;;;;;;;5068674;28;20625;-56
2023/07/12 06:06:38;;;;;;;3.10;2.37;;;;;;;;;;5069916;28;20165;-56
2023/07/12 06:09:04;;;;;;;2.37;2.17;;;;;;;;;;5071392;28;20164;-56
2023/07/12 06:11:31;;;;;;;3.47;2.60;;;;;;;;;;5073431;28;20524;-57
2023/07/12 06:13:57;;;;;;;3.23;2.57;;;;;;;;;;5055812;28;20204;-56
2023/07/12 06:16:23;;;;;;;4.07;2.63;;;;;;;;;;5072136;28;20777;-56
2023/07/12 06:18:49;;;;;;;4.33;2.67;;;;;;;;;;5073157;28;20168;-57
2023/07/12 06:21:15;;;;;;;3.73;2.47;;;;;;;;;;5073320;28;20290;-57
2023/07/12 06:23:42;;;;;;;2.60;2.33;;;;;;;;;;5073552;28;20212;-56
2023/07/12 06:26:08;;;;;;;2.67;2.20;;;;;;;;;;5073498;28;20638;-57
2023/07/12 06:28:34;;;;;;;3.67;2.70;;;;;;;;;;5073328;28;20236;-56
2023/07/12 06:31:02;;;;;;;3.87;2.50;;;;;;;;;;5073614;28;20164;-56
2023/07/12 06:33:28;;;;;;;3.57;2.27;;;;;;;;;;5072336;28;20553;-57
2023/07/12 06:35:54;;;;;;;2.90;2.53;;;;;;;;;;5073311;28;20161;-57
2023/07/12 06:38:21;;;;;;;3.83;2.40;;;;;;;;;;5072910;28;20177;-58
2023/07/12 06:40:47;;;;;;;2.57;2.30;;;;;;;;;;5073109;28;20168;-57
2023/07/12 06:43:13;;;;;;;3.37;2.40;;;;;;;;;;5073434;28;20173;-58
2023/07/12 06:45:39;;;;;;;4.00;2.57;;;;;;;;;;5072959;28;20231;-58
2023/07/12 06:48:06;;;;;;;5.17;2.10;;;;;;;;;;5071799;28;20196;-57
2023/07/12 06:50:32;;;;;;;3.20;2.30;;;;;;;;;;5072989;28;20219;-56
2023/07/12 06:52:58;;;;;;;3.00;2.23;;;;;;;;;;5072662;28;20226;-57
2023/07/12 06:55:24;;;;;;;3.17;2.10;;;;;;;;;;5072713;28;20621;-57
2023/07/12 06:57:50;;;;;;;5.17;3.10;;;;;;;;;;5072679;28;20289;-57
2023/07/12 07:00:17;;;;;;;4.27;2.27;;;;;;;;;;5073053;28;20604;-57
2023/07/12 07:02:43;;;;;;;2.90;2.70;;;;;;;;;;5072261;28;20282;-57
2023/07/12 07:05:09;;;;;;;3.43;2.50;;;;;;;;;;5071945;28;20703;-57
2023/07/12 07:07:35;;;;;;;4.50;2.70;;;;;;;;;;5072312;28;20266;-56
2023/07/12 07:10:02;;;;;;;3.33;2.13;;;;;;;;;;5072236;28;20629;-57
2023/07/12 07:12:29;;;;;;;3.70;2.23;;;;;;;;;;5072343;28;20263;-56
2023/07/12 07:14:55;;;;;;;6.20;2.67;;;;;;;;;;5072505;28;20180;-57
2023/07/12 07:17:22;;;;;;;6.00;2.93;;;;;;;;;;5071697;28;20172;-56
2023/07/12 07:19:48;;;;;;;3.97;2.63;;;;;;;;;;5072098;28;20620;-56
2023/07/12 07:22:14;;;;;;;2.90;2.60;;;;;;;;;;5070714;28;20268;-57
2023/07/12 07:24:40;;;;;;;3.00;2.37;;;;;;;;;;5072390;28;20205;-57
2023/07/12 07:27:06;;;;;;;4.17;3.13;;;;;;;;;;5072176;28;20167;-56
2023/07/12 07:29:32;;;;;;;2.83;2.60;;;;;;;;;;5054417;28;20263;-56
2023/07/12 07:31:58;;;;;;;4.43;2.80;;;;;;;;;;5053734;28;20160;-56
2023/07/12 07:34:24;;;;;;;4.30;2.93;;;;;;;;;;5071663;28;20169;-57
2023/07/12 07:36:51;;;;;;;6.03;3.03;;;;;;;;;;5071375;28;20195;-57
2023/07/12 07:39:17;;;;;;;5.37;2.80;;;;;;;;;;5072427;28;20161;-57
2023/07/12 07:41:44;;;;;;;3.87;2.37;;;;;;;;;;5072063;28;20591;-58
2023/07/12 07:44:10;;;;;;;3.57;2.70;;;;;;;;;;5053927;28;20200;-58
2023/07/12 07:46:39;;;;;;;5.20;2.97;;;;;;;;;;5071782;28;20190;-57
2023/07/12 07:49:05;;;;;;;4.60;2.70;;;;;;;;;;5071152;28;20614;-57
2023/07/12 07:51:33;;;;;;;3.30;2.87;;;;;;;;;;5071832;28;20184;-57
2023/07/12 07:53:59;;;;;;;2.80;2.60;;;;;;;;;;5070638;28;20250;-58
2023/07/12 07:56:27;;;;;;;2.43;2.20;;;;;;;;;;5070194;28;20630;-57
2023/07/12 07:58:53;;;;;;;3.00;2.67;;;;;;;;;;5070398;28;20173;-57
2023/07/12 08:01:19;;;;;;;3.97;2.47;;;;;;;;;;5070046;28;20547;-58
2023/07/12 08:03:45;;;;;;;2.67;2.30;;;;;;;;;;5069720;28;20204;-57
2023/07/12 08:06:11;;;;;;;3.27;2.20;;;;;;;;;;5069827;28;20192;-57
2023/07/12 08:08:38;;;;;;;4.30;2.40;;;;;;;;;;5070698;28;20165;-58
2023/07/12 08:11:05;;;;;;;2.90;2.60;;;;;;;;;;5071738;28;20180;-57
2023/07/12 08:13:31;;;;;;;2.43;2.17;;;;;;;;;;5071636;28;20221;-57
2023/07/12 08:15:58;;;;;;;3.00;2.70;;;;;;;;;;5071320;28;20168;-56
2023/07/12 08:18:24;;;;;;;2.87;2.30;;;;;;;;;;5069813;28;20230;-57
2023/07/12 08:20:53;;;;;;;6.87;2.40;;;;;;;;;;5071755;28;20230;-57
2023/07/12 08:23:19;;;;;;;3.90;2.57;;;;;;;;;;5071376;28;20613;-57
2023/07/12 08:25:45;;;;;;;3.40;2.40;;;;;;;;;;5071021;28;20283;-57
2023/07/12 08:28:11;;;;;;;5.33;2.97;;;;;;;;;;5071069;28;20267;-57
2023/07/12 08:30:37;;;;;;;4.10;2.60;;;;;;;;;;5071145;28;20164;-57
2023/07/12 08:33:03;;;;;;;5.00;2.57;;;;;;;;;;5069676;28;20175;-60
2023/07/12 08:35:29;;;;;;;3.23;2.63;;;;;;;;;;5071132;28;20167;-57
2023/07/12 08:37:56;;;;;;;5.10;2.60;;;;;;;;;;5071123;28;20165;-58
2023/07/12 08:40:23;;;;;;;4.90;2.73;;;;;;;;;;5071225;28;20166;-58
2023/07/12 08:42:50;;;;;;;3.80;2.70;;;;;;;;;;5071175;28;20190;-58
2023/07/12 08:45:16;;;;;;;3.90;2.93;;;;;;;;;;5070461;28;20210;-57
2023/07/12 08:47:43;;;;;;;4.07;2.93;;;;;;;;;;5069707;28;20193;-57
2023/07/12 08:50:16;;;;;;;4.77;3.10;;;;;;;;;;5070302;28;20163;-58
2023/07/12 08:52:44;;;;;;;4.30;2.70;;;;;;;;;;5070733;28;20643;-58
2023/07/12 08:55:22;;;;;;;5.60;3.10;;;;;;;;;;5070293;28;20421;-57
2023/07/12 08:57:58;;;;;;;5.20;3.07;;;;;;;;;;5070414;28;20702;-57
2023/07/12 09:00:30;;;;;;;5.77;2.50;;;;;;;;;;5070663;28;20637;-58
2023/07/12 09:02:56;;;;;;;4.97;2.57;;;;;;;;;;5069632;28;20257;-58
2023/07/12 09:05:24;;;;;;;4.47;2.30;;;;;;;;;;5069638;28;20206;-58
2023/07/12 09:08:00;;;;;;;3.50;2.37;;;;;;;;;;5070674;28;20271;-57
2023/07/12 09:10:33;;;;;;;3.27;2.40;;;;;;;;;;5070711;28;20183;-58
2023/07/12 09:13:02;;;;;;;5.80;2.80;;;;;;;;;;5070603;28;20149;-59
2023/07/12 09:15:38;;;;;;;2.90;2.60;;;;;;;;;;5052437;28;20586;-58
2023/07/12 09:18:08;;;;;;;5.57;2.30;;;;;;;;;;5069434;28;20670;-58
2023/07/12 09:20:38;;;;;;;4.27;2.73;;;;;;;;;;5070654;28;20519;-58
2023/07/12 09:23:04;;;;;;;2.90;2.43;;;;;;;;;;5070154;28;20176;-58
2023/07/12 09:25:38;;;;;;;3.47;2.40;;;;;;;;;;5070496;28;20203;-58
2023/07/12 09:28:05;;;;;;;2.53;2.20;;;;;;;;;;5070544;28;20618;-58
2023/07/12 09:30:33;;;;;;;4.40;2.27;;;;;;;;;;5070295;28;20557;-57
2023/07/12 09:33:03;;;;;;;4.07;2.40;;;;;;;;;;5069147;28;20162;-57
2023/07/12 09:35:29;;;;;;;3.90;2.37;;;;;;;;;;5070336;28;20177;-58
2023/07/12 09:38:04;;;;;;;3.90;2.20;;;;;;;;;;5070328;28;20175;-58
2023/07/12 09:40:35;;;;;;;2.73;2.10;;;;;;;;;;5069934;28;20195;-58
2023/07/12 09:43:04;;;;;;;2.87;2.00;;;;;;;;;;5070395;28;20641;-58
2023/07/12 09:45:34;;;;;;;5.20;2.80;;;;;;;;;;5073787;28;20192;-57
2023/07/12 09:48:20;;;;;;;3.27;2.50;;;;;;;;;;5073233;28;20431;-58
2023/07/12 09:50:51;;;;;;;4.83;1.97;;;;;;;;;;5033400;28;20337;-57
2023/07/12 09:53:33;;;;;;;5.10;2.60;;;;;;;;;;5074174;28;20616;-58
2023/07/12 09:56:08;;;;;;;7.00;2.40;;;;;;;;;;5073943;28;20167;-59
2023/07/12 09:58:34;;;;;;;4.33;2.20;;;;;;;;;;5074097;28;20602;-59
2023/07/12 10:01:06;;;;;;;2.20;2.00;;;;;;;;;;5074138;28;20176;-58
2023/07/12 10:03:43;;;;;;;4.23;2.43;;;;;;;;;;5072240;28;20520;-58
2023/07/12 10:06:20;;;;;;;3.23;2.30;;;;;;;;;;5074017;28;20172;-57
2023/07/12 10:08:52;;;;;;;3.07;2.10;;;;;;;;;;5074029;28;20502;-59
2023/07/12 10:11:29;;;;;;;3.50;2.10;;;;;;;;;;5073793;28;20157;-59
2023/07/12 10:13:58;;;;;;;4.83;2.50;;;;;;;;;;5073891;28;20164;-59
2023/07/12 10:16:25;;;;;;;4.40;2.43;;;;;;;;;;5073185;28;20563;-59
2023/07/12 10:18:52;;;;;;;4.60;2.47;;;;;;;;;;5072710;28;20758;-59
2023/07/12 10:21:23;;;;;;;5.83;2.63;;;;;;;;;;5073884;28;20180;-59
2023/07/12 10:23:52;;;;;;;4.90;2.73;;;;;;;;;;5073296;28;20216;-59
2023/07/12 10:26:18;;;;;;;4.00;2.63;;;;;;;;;;5073232;28;20179;-59
2023/07/12 10:28:49;;;;;;;4.83;3.20;;;;;;;;;;5073255;28;20165;-60
2023/07/12 10:31:33;;;;;;;4.53;2.73;;;;;;;;;;5073127;28;20177;-59
2023/07/12 10:34:06;;;;;;;3.40;2.50;;;;;;;;;;5072750;28;20519;-59
2023/07/12 10:36:33;;;;;;;3.73;2.73;;;;;;;;;;5073063;28;20648;-59
2023/07/12 10:38:59;;;;;;;4.30;2.80;;;;;;;;;;5072985;28;20180;-59
2023/07/12 10:41:34;;;;;;;4.03;2.90;;;;;;;;;;5073311;28;20185;-59
2023/07/12 10:44:06;;;;;;;3.77;2.60;;;;;;;;;;5072953;28;20677;-59
2023/07/12 10:46:35;;;;;;;4.87;2.83;;;;;;;;;;5072900;28;20161;-59
2023/07/12 10:49:04;;;;;;;4.17;2.67;;;;;;;;;;5072224;28;20212;-59
2023/07/12 10:51:35;;;;;;;4.90;3.67;;;;;;;;;;5073339;28;20795;-59
2023/07/12 10:54:02;;;;;;;3.37;2.67;;;;;;;;;;5072709;28;20207;-58
2023/07/12 10:56:34;;;;;;;6.10;2.97;;;;;;;;;;5071246;28;20220;-58
2023/07/12 10:59:01;;;;;;;4.77;2.70;;;;;;;;;;5072869;28;20199;-59
2023/07/12 11:01:38;;;;;;;3.23;2.50;;;;;;;;;;5072659;28;20177;-59
2023/07/12 11:04:09;;;;;;;5.27;2.43;;;;;;;;;;5071703;28;20216;-59
2023/07/12 11:06:36;;;;;;;3.50;2.67;;;;;;;;;;5072495;28;20260;-57
2023/07/12 11:09:08;;;;;;;3.00;2.17;;;;;;;;;;5072977;28;20255;-57
2023/07/12 11:11:40;;;;;;;5.00;2.83;;;;;;;;;;5072532;28;20163;-55
2023/07/12 11:14:27;;;;;;;5.40;2.57;;;;;;;;;;5072488;28;20156;-56
2023/07/12 11:17:09;;;;;;;2.57;1.90;;;;;;;;;;5071921;28;20251;-57
2023/07/12 11:19:35;;;;;;;2.97;2.40;;;;;;;;;;5072497;28;20242;-57
2023/07/12 11:22:20;;;;;;;4.57;2.60;;;;;;;;;;5072339;28;20183;-57
2023/07/12 11:24:56;;;;;;;3.57;1.93;;;;;;;;;;5072200;28;20187;-56
2023/07/12 11:27:31;;;;;;;5.47;2.60;;;;;;;;;;5054166;28;20173;-57
2023/07/12 11:30:07;;;;;;;4.43;2.93;;;;;;;;;;5072617;28;20159;-61
2023/07/12 11:32:40;;;;;;;4.33;2.30;;;;;;;;;;5053716;28;20163;-60
2023/07/12 11:35:15;;;;;;;5.00;2.70;;;;;;;;;;5070875;28;20500;-60
2023/07/12 11:37:42;;;;;;;4.83;2.17;;;;;;;;;;5072229;28;20173;-61
2023/07/12 11:40:17;;;;;;;2.30;1.90;;;;;;;;;;5072337;28;20172;-60
2023/07/12 11:42:43;;;;;;;5.10;2.30;;;;;;;;;;5072284;28;20177;-61
2023/07/12 11:45:12;;;;;;;2.40;2.20;;;;;;;;;;5072096;28;20608;-62
2023/07/12 11:47:42;;;;;;;4.77;2.20;;;;;;;;;;5071142;28;20581;-61
2023/07/12 11:50:14;;;;;;;4.43;2.77;;;;;;;;;;5071466;28;20160;-61
2023/07/12 11:52:40;;;;;;;3.43;2.67;;;;;;;;;;5072125;28;20505;-61
2023/07/12 11:55:13;;;;;;;4.93;2.10;;;;;;;;;;5071780;28;20167;-61
2023/07/12 11:57:40;;;;;;;5.33;2.93;;;;;;;;;;5071599;28;20220;-61
2023/07/12 12:00:15;;;;;;;5.60;2.37;;;;;;;;;;5071408;28;20182;-61
2023/07/12 12:02:41;;;;;;;3.40;2.17;;;;;;;;;;5070851;28;20198;-61
2023/07/12 12:05:20;;;;;;;3.33;2.00;;;;;;;;;;5071061;28;20226;-57
2023/07/12 12:07:47;;;;;;;4.23;2.70;;;;;;;;;;5071618;28;20171;-57
2023/07/12 12:10:21;;;;;;;4.33;2.33;;;;;;;;;;5071275;28;20220;-57
2023/07/12 12:12:48;;;;;;;3.33;2.57;;;;;;;;;;5071535;28;20154;-57
2023/07/12 12:15:34;;;;;;;2.17;1.93;;;;;;;;;;5071273;28;20626;-57
2023/07/12 12:18:14;;;;;;;5.27;2.57;;;;;;;;;;5070527;28;20163;-57
2023/07/12 12:20:51;;;;;;;4.37;2.47;;;;;;;;;;5071503;28;20173;-57
2023/07/12 12:23:21;;;;;;;2.97;2.70;;;;;;;;;;5071286;28;20167;-57
2023/07/12 12:25:49;;;;;;;4.47;2.83;;;;;;;;;;5070961;28;20556;-57
2023/07/12 12:28:18;;;;;;;3.47;2.20;;;;;;;;;;5070999;28;20182;-58
2023/07/12 12:30:56;;;;;;;3.53;2.03;;;;;;;;;;5070943;28;20169;-58
2023/07/12 12:33:24;;;;;;;2.10;1.90;;;;;;;;;;5070179;28;20182;-57
2023/07/12 12:35:57;;;;;;;2.93;2.20;;;;;;;;;;5070624;28;20218;-57
2023/07/12 12:38:27;;;;;;;3.40;2.20;;;;;;;;;;5070564;28;20198;-58
2023/07/12 12:40:56;;;;;;;4.30;2.03;;;;;;;;;;5070705;28;20561;-57
2023/07/12 12:43:24;;;;;;;3.70;2.10;;;;;;;;;;5070556;28;20198;-58
2023/07/12 12:45:50;;;;;;;2.50;2.20;;;;;;;;;;5070710;28;20196;-57
2023/07/12 12:48:17;;;;;;;6.30;2.20;;;;;;;;;;5069406;28;20176;-58
2023/07/12 12:50:43;;;;;;;5.10;2.37;;;;;;;;;;5070604;28;20198;-57
2023/07/12 12:53:12;;;;;;;2.63;2.23;;;;;;;;;;5070934;28;20159;-56
2023/07/12 12:55:39;;;;;;;2.77;2.10;;;;;;;;;;5070816;28;20172;-56
2023/07/12 12:58:14;;;;;;;4.43;2.33;;;;;;;;;;5070387;28;20229;-56
2023/07/12 13:00:42;;;;;;;5.10;2.23;;;;;;;;;;5070901;28;20545;-57
2023/07/12 13:03:12;;;;;;;3.30;2.37;;;;;;;;;;5069241;28;20186;-56
2023/07/12 13:05:40;;;;;;;3.40;2.10;;;;;;;;;;5069984;28;20218;-57
2023/07/12 13:08:14;;;;;;;3.30;2.30;;;;;;;;;;5070697;28;20163;-57
2023/07/12 13:10:41;;;;;;;2.50;2.20;;;;;;;;;;5070353;28;20594;-56
2023/07/12 13:13:11;;;;;;;2.13;1.90;;;;;;;;;;5070251;28;20235;-57
2023/07/12 13:15:37;;;;;;;4.40;3.07;;;;;;;;;;5070275;28;20247;-57
2023/07/12 13:18:04;;;;;;;4.17;1.90;;;;;;;;;;5068776;28;20181;-58
2023/07/12 13:20:33;;;;;;;3.73;2.07;;;;;;;;;;5070290;28;20161;-57
2023/07/12 13:23:00;;;;;;;3.17;2.47;;;;;;;;;;5070232;28;20237;-57
2023/07/12 13:25:26;;;;;;;3.00;2.00;;;;;;;;;;5069973;28;20230;-57
2023/07/12 13:27:55;;;;;;;3.37;2.37;;;;;;;;;;5070268;28;20289;-58
2023/07/12 13:30:23;;;;;;;3.07;2.00;;;;;;;;;;5070299;28;20543;-59
2023/07/12 13:32:49;;;;;;;2.57;2.03;;;;;;;;;;5069443;28;20665;-58
2023/07/12 13:35:16;;;;;;;2.93;2.13;;;;;;;;;;5069969;28;20206;-58
2023/07/12 13:37:42;;;;;;;2.70;2.40;;;;;;;;;;5070150;28;20168;-58
2023/07/12 13:40:35;;;;;;;3.10;2.13;;;;;;;;;;5070370;28;20168;-58
2023/07/12 13:43:01;;;;;;;3.27;1.83;;;;;;;;;;5066574;28;20635;-60
2023/07/12 13:45:27;;;;;;;3.67;2.30;;;;;;;;;;5069916;28;20196;-58
2023/07/12 13:47:53;;;;;;;3.23;1.90;;;;;;;;;;5069571;28;20677;-59
2023/07/12 13:50:19;;;;;;;2.37;2.10;;;;;;;;;;5069292;28;20173;-58
2023/07/12 13:52:45;;;;;;;5.93;2.30;;;;;;;;;;5069866;28;20169;-57
2023/07/12 13:55:15;;;;;;;3.33;2.25;;;;;;;;;;5070050;28;20172;-58
2023/07/12 13:57:41;;;;;;;2.80;2.33;;;;;;;;;;5069937;28;20243;-57
2023/07/12 14:00:14;;;;;;;2.65;2.20;;;;;;;;;;5070328;28;20161;-57
2023/07/12 14:02:40;;;;;;;2.85;2.05;;;;;;;;;;5068915;28;20173;-58
2023/07/12 14:05:08;;;;;;;3.83;2.10;;;;;;;;;;5069307;28;20266;-58
2023/07/12 14:07:35;;;;;;;1.80;1.70;;;;;;;;;;5069917;28;20157;-57
2023/07/12 14:10:02;;;;;;;2.15;1.95;;;;;;;;;;5069171;28;20486;-58
2023/07/12 14:12:29;;;;;;;2.55;2.30;;;;;;;;;;5069883;28;20596;-58
2023/07/12 14:14:56;;;;;;;3.45;2.25;;;;;;;;;;5069709;28;20161;-58
2023/07/12 14:17:24;;;;;;;2.10;1.90;;;;;;;;;;5068884;28;20188;-58
2023/07/12 14:19:57;;;;;;;2.63;2.20;;;;;;;;;;5069311;28;20165;-58
2023/07/12 14:22:30;;;;;;;4.00;2.60;;;;;;;;;;5069502;28;20188;-58
2023/07/12 14:24:57;;;;;;;3.20;2.10;;;;;;;;;;5069683;28;20180;-57
2023/07/12 14:27:25;;;;;;;2.67;1.90;;;;;;;;;;5069387;28;20181;-57
2023/07/12 14:29:52;;;;;;;1.80;1.60;;;;;;;;;;5070430;28;20172;-58
2023/07/12 14:32:26;;;;;;;1.80;1.70;;;;;;;;;;5072251;28;20169;-58
2023/07/12 14:34:53;;;;;;;4.60;2.10;;;;;;;;;;5072951;28;20663;-57
2023/07/12 14:37:20;;;;;;;2.33;2.13;;;;;;;;;;5072952;28;20169;-58
2023/07/12 14:39:46;;;;;;;2.73;2.03;;;;;;;;;;5073019;28;20168;-59
2023/07/12 14:42:35;;;;;;;2.20;2.00;;;;;;;;;;5073460;28;20176;-58
2023/07/12 14:45:02;;;;;;;3.83;2.37;;;;;;;;;;5072842;28;20214;-58
2023/07/12 14:47:28;;;;;;;3.33;2.20;;;;;;;;;;5072112;28;20165;-59
2023/07/12 14:49:54;;;;;;;2.53;2.10;;;;;;;;;;5072359;28;20164;-58